Time;durP1;ratioP1;P1;durP2;ratioP2;P2;SDS_P1;SDS_P2;PMS_P1;PMS_P2;Temp;Humidity;BMP_temperature;BMP_pressure;BME280_temperature;BME280_humidity;BME280_pressure;Samples;Min_cycle;Max_cycle;Signal;HPM_P1;HPM_P2
2023/05/09 00:01:28;;;;;;;92.10;50.00;;;;;;;3.14;67.59;101624.17;1841889;77;25345;-74
2023/05/09 00:03:53;;;;;;;87.35;43.98;;;;;;;3.13;67.73;101627.88;1828420;77;27541;-75
2023/05/09 00:06:19;;;;;;;75.78;41.60;;;;;;;3.10;67.84;101626.49;1841845;76;25356;-75
2023/05/09 00:08:45;;;;;;;80.10;45.78;;;;;;;3.07;68.00;101628.27;1841909;77;25589;-75
2023/05/09 00:11:12;;;;;;;86.37;47.08;;;;;;;3.05;67.82;101621.50;1841884;76;25514;-76
2023/05/09 00:13:38;;;;;;;75.70;43.95;;;;;;;3.01;68.06;101623.81;1841899;77;25530;-76
2023/05/09 00:16:07;;;;;;;79.62;43.20;;;;;;;2.98;68.02;101621.09;1841841;77;27522;-75
2023/05/09 00:18:35;;;;;;;81.12;40.95;;;;;;;2.95;68.05;101620.20;1841807;76;25590;-75
2023/05/09 00:21:03;;;;;;;74.47;41.55;;;;;;;2.95;67.72;101626.08;1841917;76;25555;-75
2023/05/09 00:23:31;;;;;;;73.80;42.73;;;;;;;2.90;68.21;101622.73;1841879;77;25394;-75
2023/05/09 00:25:59;;;;;;;77.97;40.80;;;;;;;2.88;68.23;101618.64;1841895;77;25383;-74
2023/05/09 00:28:28;;;;;;;77.70;40.33;;;;;;;2.86;68.37;101620.72;1841893;77;28031;-74
2023/05/09 00:30:54;;;;;;;69.70;40.03;;;;;;;2.83;68.22;101619.33;1841780;77;25510;-72
2023/05/09 00:33:25;;;;;;;72.12;39.90;;;;;;;2.80;68.22;101623.78;1841795;77;25427;-72
2023/05/09 00:35:50;;;;;;;75.42;39.75;;;;;;;2.79;68.50;101614.13;1841305;77;25431;-73
2023/05/09 00:38:16;;;;;;;74.58;39.75;;;;;;;2.76;68.56;101619.94;1841958;77;25375;-73
2023/05/09 00:40:42;;;;;;;77.17;40.60;;;;;;;2.72;68.43;101612.86;1841875;76;27587;-73
2023/05/09 00:43:08;;;;;;;73.92;39.38;;;;;;;2.72;68.62;101613.39;1841853;76;25448;-74
2023/05/09 00:45:35;;;;;;;74.82;39.35;;;;;;;2.69;68.88;101613.83;1841844;76;25568;-73
2023/05/09 00:48:06;;;;;;;74.85;40.17;;;;;;;2.66;68.88;101618.31;1841897;77;25394;-73
2023/05/09 00:50:32;;;;;;;75.78;39.80;;;;;;;2.63;68.90;101620.09;1841960;77;25523;-73
2023/05/09 00:52:58;;;;;;;77.30;42.00;;;;;;;2.60;68.94;101621.34;1841906;76;28144;-72
2023/05/09 00:55:26;;;;;;;74.15;40.70;;;;;;;2.57;69.08;101615.94;1841630;76;25984;-72
2023/05/09 00:57:53;;;;;;;69.85;39.13;;;;;;;2.56;68.97;101614.30;1841828;76;25387;-72
2023/05/09 01:00:20;;;;;;;74.53;40.45;;;;;;;2.53;68.73;101617.92;1841787;76;25557;-71
2023/05/09 01:02:53;;;;;;;75.37;40.67;;;;;;;2.50;68.79;101609.83;1841888;76;25192;-71
2023/05/09 01:05:29;;;;;;;74.77;38.50;;;;;;;2.50;68.84;101615.70;1842030;76;27460;-73
2023/05/09 01:08:16;;;;;;;71.55;39.45;;;;;;;2.46;68.90;101616.66;1842112;76;25604;-74
2023/05/09 01:10:53;;;;;;;68.12;37.65;;;;;;;2.44;68.77;101612.07;1799009;79;25514;-73
2023/05/09 01:13:37;;;;;;;81.80;40.98;;;;;;;2.42;69.12;101606.95;1725522;83;26238;-73
2023/05/09 01:16:22;;;;;;;72.30;39.15;;;;;;;2.39;69.23;101607.91;1798927;79;25609;-73
2023/05/09 01:18:55;;;;;;;73.07;40.38;;;;;;;2.35;69.40;101612.05;1727539;82;27554;-74
2023/05/09 01:21:28;;;;;;;72.40;40.15;;;;;;;2.30;69.46;101615.41;1798695;79;25488;-73
2023/05/09 01:24:07;;;;;;;74.97;41.55;;;;;;;2.26;69.56;101608.05;1798868;79;25603;-72
2023/05/09 01:26:44;;;;;;;71.50;40.12;;;;;;;2.24;69.68;101612.27;1798359;79;25693;-73
2023/05/09 01:29:48;;;;;;;71.67;39.83;;;;;;;2.21;69.74;101610.88;1727689;83;25496;-72
2023/05/09 01:32:27;;;;;;;70.83;40.28;;;;;;;2.19;69.96;101615.59;1798764;79;27658;-71
2023/05/09 01:34:59;;;;;;;72.22;39.55;;;;;;;2.15;70.02;101610.41;1798993;79;25694;-71
2023/05/09 01:37:33;;;;;;;72.50;38.10;;;;;;;2.13;69.81;101607.64;1798931;79;25541;-72
2023/05/09 01:40:17;;;;;;;73.85;40.60;;;;;;;2.12;69.40;101605.50;1799030;79;25661;-73
2023/05/09 01:42:50;;;;;;;69.25;38.40;;;;;;;2.12;70.05;101609.50;1727748;83;25513;-72
2023/05/09 01:45:20;;;;;;;76.67;39.25;;;;;;;2.10;69.59;101608.11;1824499;77;28267;-72
2023/05/09 01:47:50;;;;;;;75.37;40.50;;;;;;;2.09;70.15;101606.47;1841909;77;25533;-71
2023/05/09 01:50:20;;;;;;;71.90;39.58;;;;;;;2.07;70.20;101609.34;1841947;77;25564;-72
2023/05/09 01:52:52;;;;;;;72.25;39.48;;;;;;;2.05;70.32;101604.76;1841897;76;25542;-73
2023/05/09 01:55:24;;;;;;;72.40;38.90;;;;;;;2.02;70.05;101607.33;1844254;77;25535;-72
2023/05/09 01:57:56;;;;;;;72.50;38.35;;;;;;;2.01;70.18;101610.22;1845193;77;27427;-72
2023/05/09 02:00:26;;;;;;;73.97;39.25;;;;;;;1.97;70.11;101609.84;1845124;76;25713;-71
2023/05/09 02:02:56;;;;;;;65.75;37.42;;;;;;;1.96;70.19;101607.39;1846329;76;25547;-72
2023/05/09 02:05:28;;;;;;;71.70;40.10;;;;;;;1.94;70.32;101611.64;1836027;77;26132;-72
2023/05/09 02:07:58;;;;;;;69.92;39.98;;;;;;;1.91;70.42;101611.23;1847656;77;25515;-73
2023/05/09 02:10:28;;;;;;;71.70;38.05;;;;;;;1.89;70.43;101605.30;1847665;76;28539;-73
2023/05/09 02:12:56;;;;;;;76.90;39.75;;;;;;;1.87;70.48;101606.85;1847443;76;25506;-73
2023/05/09 02:15:26;;;;;;;70.65;38.25;;;;;;;1.85;70.27;101610.27;1847528;76;25372;-73
2023/05/09 02:17:52;;;;;;;75.12;38.65;;;;;;;1.81;70.46;101604.55;1835991;77;25547;-71
2023/05/09 02:20:19;;;;;;;73.83;39.70;;;;;;;1.78;70.15;101598.31;1847641;77;25478;-72
2023/05/09 02:22:47;;;;;;;74.37;37.90;;;;;;;1.76;69.87;101595.58;1835974;77;27442;-73
2023/05/09 02:25:17;;;;;;;68.28;35.98;;;;;;;1.75;69.84;101603.27;1847553;76;25659;-71
2023/05/09 02:27:46;;;;;;;66.17;35.48;;;;;;;1.71;69.96;101601.55;1847486;77;25432;-71
2023/05/09 02:30:24;;;;;;;63.87;36.08;;;;;;;1.69;69.90;101606.30;1847564;76;25522;-71
2023/05/09 02:33:01;;;;;;;64.40;35.48;;;;;;;1.65;70.07;101603.75;1847542;77;25380;-71
2023/05/09 02:35:31;;;;;;;66.75;35.78;;;;;;;1.60;70.05;101606.25;1847491;77;27496;-71
2023/05/09 02:38:01;;;;;;;69.10;36.80;;;;;;;1.55;70.23;101604.25;1847505;77;25564;-71
2023/05/09 02:40:31;;;;;;;64.45;34.45;;;;;;;1.51;70.51;101603.03;1847538;76;25348;-72
2023/05/09 02:42:57;;;;;;;68.42;37.17;;;;;;;1.47;70.55;101605.84;1847594;76;26138;-72
2023/05/09 02:45:23;;;;;;;64.25;35.83;;;;;;;1.45;70.58;101606.05;1847602;77;25511;-72
2023/05/09 02:47:50;;;;;;;62.30;34.27;;;;;;;1.42;70.47;101600.34;1847607;76;27450;-72
2023/05/09 02:50:17;;;;;;;64.55;34.53;;;;;;;1.39;70.57;101598.09;1847509;76;25537;-72
2023/05/09 02:52:44;;;;;;;64.47;34.60;;;;;;;1.38;70.41;101605.78;1847602;77;25517;-72
2023/05/09 02:55:12;;;;;;;66.40;36.38;;;;;;;1.34;70.56;101605.41;1843360;77;25541;-74
2023/05/09 02:57:38;;;;;;;66.85;34.98;;;;;;;1.32;70.55;101605.33;1842003;76;25479;-74
2023/05/09 03:00:11;;;;;;;61.10;36.53;;;;;;;1.30;70.71;101603.69;1841967;77;27529;-73
2023/05/09 03:02:39;;;;;;;64.40;35.85;;;;;;;1.29;70.89;101605.23;1841856;76;25565;-74
2023/05/09 03:05:06;;;;;;;65.42;34.50;;;;;;;1.27;70.98;101611.30;1841934;77;25518;-72
2023/05/09 03:07:34;;;;;;;64.95;35.55;;;;;;;1.25;71.05;101607.52;1842059;76;26157;-72
2023/05/09 03:10:00;;;;;;;63.63;36.80;;;;;;;1.22;71.15;101606.59;1830522;77;25553;-73
2023/05/09 03:12:26;;;;;;;70.67;35.28;;;;;;;1.23;71.41;101606.10;1841939;77;27557;-73
2023/05/09 03:14:52;;;;;;;64.72;35.83;;;;;;;1.23;71.24;101608.77;1841818;76;25429;-73
2023/05/09 03:17:20;;;;;;;63.08;36.48;;;;;;;1.25;71.39;101610.70;1841971;76;25429;-73
2023/05/09 03:19:48;;;;;;;62.70;35.55;;;;;;;1.27;71.68;101611.30;1841912;77;25527;-73
2023/05/09 03:22:15;;;;;;;59.48;33.40;;;;;;;1.28;71.53;101615.08;1841890;77;25427;-73
2023/05/09 03:24:41;;;;;;;55.55;32.08;;;;;;;1.30;71.88;101610.88;1841839;76;27530;-72
2023/05/09 03:27:07;;;;;;;58.75;33.85;;;;;;;1.33;72.21;101608.28;1841765;77;25509;-72
2023/05/09 03:29:33;;;;;;;60.85;34.98;;;;;;;1.37;72.22;101609.50;1841969;76;25927;-71
2023/05/09 03:31:59;;;;;;;65.25;36.77;;;;;;;1.40;72.33;101609.88;1841880;77;25597;-72
2023/05/09 03:34:26;;;;;;;63.87;34.38;;;;;;;1.44;72.32;101612.94;1841870;77;25518;-73
2023/05/09 03:36:52;;;;;;;60.43;34.23;;;;;;;1.48;72.28;101607.45;1841876;76;27442;-72
2023/05/09 03:39:18;;;;;;;59.50;32.00;;;;;;;1.53;72.23;101614.82;1841788;76;25361;-70
2023/05/09 03:41:44;;;;;;;59.77;31.93;;;;;;;1.56;72.59;101616.53;1841841;76;29726;-70
2023/05/09 03:44:10;;;;;;;60.58;31.45;;;;;;;1.60;72.87;101619.09;1841833;76;26148;-71
2023/05/09 03:46:36;;;;;;;58.52;32.48;;;;;;;1.64;72.93;101616.27;1841868;76;25585;-72
2023/05/09 03:49:03;;;;;;;62.38;33.98;;;;;;;1.72;73.03;101619.70;1841885;77;27450;-75
2023/05/09 03:51:31;;;;;;;61.42;33.42;;;;;;;1.77;73.28;101616.70;1841794;76;25367;-76
2023/05/09 03:53:59;;;;;;;54.67;31.40;;;;;;;1.83;73.45;101615.81;1841762;77;25526;-75
2023/05/09 03:56:27;;;;;;;59.63;31.62;;;;;;;1.91;73.49;101617.91;1851421;77;25594;-74
2023/05/09 03:58:54;;;;;;;52.23;30.55;;;;;;;1.97;73.82;101615.18;1841832;77;25553;-73
2023/05/09 04:01:20;;;;;;;57.00;30.25;;;;;;;2.04;73.75;101615.12;1841855;76;27984;-73
2023/05/09 04:03:46;;;;;;;46.23;26.42;;;;;;;2.14;74.12;101617.30;1841812;76;25603;-73
2023/05/09 04:06:13;;;;;;;49.80;24.87;;;;;;;2.23;74.24;101614.62;1842103;76;25533;-73
2023/05/09 04:08:39;;;;;;;52.10;27.25;;;;;;;2.35;74.33;101616.89;1842433;77;26109;-73
2023/05/09 04:11:05;;;;;;;51.28;26.45;;;;;;;2.46;74.40;101617.20;1843690;76;25664;-73
2023/05/09 04:13:33;;;;;;;45.05;24.32;;;;;;;2.55;74.41;101612.64;1843723;77;27408;-72
2023/05/09 04:16:00;;;;;;;50.80;27.30;;;;;;;2.68;74.43;101617.56;1841869;76;25424;-72
2023/05/09 04:18:27;;;;;;;53.98;29.92;;;;;;;2.82;74.61;101609.67;1841828;76;25372;-74
2023/05/09 04:20:53;;;;;;;52.78;27.65;;;;;;;2.92;74.66;101604.61;1841745;77;26035;-74
2023/05/09 04:23:19;;;;;;;52.35;27.62;;;;;;;3.04;74.72;101605.19;1841816;76;32315;-73
2023/05/09 04:25:46;;;;;;;50.67;28.27;;;;;;;3.14;74.91;101609.47;1841815;77;27620;-72
2023/05/09 04:28:12;;;;;;;50.70;27.32;;;;;;;3.27;74.90;101608.45;1841695;77;25532;-72
2023/05/09 04:30:38;;;;;;;49.42;28.15;;;;;;;3.39;75.05;101603.14;1841804;76;30063;-72
2023/05/09 04:33:04;;;;;;;42.62;25.52;;;;;;;3.52;75.06;101604.28;1841788;77;25552;-73
2023/05/09 04:35:30;;;;;;;49.95;25.72;;;;;;;3.66;75.17;101604.39;1841817;77;25357;-73
2023/05/09 04:37:56;;;;;;;49.63;27.45;;;;;;;3.82;75.10;101604.75;1841818;77;27461;-73
2023/05/09 04:40:25;;;;;;;54.93;28.05;;;;;;;3.96;75.24;101604.81;1841906;77;25400;-71
2023/05/09 04:42:51;;;;;;;43.23;24.23;;;;;;;4.12;75.58;101607.33;1841953;77;25566;-74
2023/05/09 04:45:17;;;;;;;33.53;19.77;;;;;;;4.25;74.98;101619.12;1841858;77;25472;-73
2023/05/09 04:47:45;;;;;;;34.63;18.45;;;;;;;4.36;73.92;101616.66;1841925;76;25613;-73
2023/05/09 04:50:12;;;;;;;29.90;17.55;;;;;;;4.53;73.31;101619.44;1841926;76;27516;-73
2023/05/09 04:52:38;;;;;;;31.10;16.75;;;;;;;4.72;72.96;101624.14;1841734;76;25487;-73
2023/05/09 04:55:05;;;;;;;34.98;17.67;;;;;;;4.89;72.32;101614.30;1841704;76;29714;-72
2023/05/09 04:57:31;;;;;;;32.55;18.80;;;;;;;5.07;72.44;101620.52;1841840;76;25459;-72
2023/05/09 04:59:57;;;;;;;32.17;17.95;;;;;;;5.23;72.54;101619.23;1842002;77;25507;-73
2023/05/09 05:02:24;;;;;;;34.40;17.75;;;;;;;5.37;71.35;101611.69;1841777;76;28065;-74
2023/05/09 05:04:51;;;;;;;33.95;17.20;;;;;;;5.53;71.17;101615.44;1841748;76;25501;-75
2023/05/09 05:07:17;;;;;;;35.05;16.40;;;;;;;5.68;70.82;101618.91;1841835;77;25599;-72
2023/05/09 05:09:43;;;;;;;33.18;17.40;;;;;;;5.83;70.28;101625.06;1841718;76;25569;-74
2023/05/09 05:12:09;;;;;;;31.17;17.60;;;;;;;5.96;69.92;101619.41;1841861;77;25549;-73
2023/05/09 05:14:37;;;;;;;32.63;18.32;;;;;;;6.11;69.83;101621.52;1841800;77;28151;-76
2023/05/09 05:17:03;;;;;;;32.15;17.50;;;;;;;6.25;69.02;101623.83;1841959;77;25705;-76
2023/05/09 05:19:30;;;;;;;35.30;18.00;;;;;;;6.40;68.68;101617.86;1841934;76;25399;-74
2023/05/09 05:21:57;;;;;;;28.50;16.90;;;;;;;6.57;68.78;101619.96;1842030;76;25479;-73
2023/05/09 05:24:24;;;;;;;29.37;15.63;;;;;;;6.78;68.73;101622.93;1842153;76;32453;-75
2023/05/09 05:26:50;;;;;;;23.40;13.98;;;;;;;6.95;66.77;101629.05;1842028;76;27547;-76
2023/05/09 05:29:16;;;;;;;20.45;12.53;;;;;;;7.17;66.22;101623.63;1842135;77;25530;-76
2023/05/09 05:31:44;;;;;;;19.35;12.55;;;;;;;7.39;65.27;101624.93;1842055;76;25541;-76
2023/05/09 05:34:10;;;;;;;19.82;12.28;;;;;;;7.63;65.02;101623.27;1841974;77;25556;-75
2023/05/09 05:36:37;;;;;;;17.32;11.97;;;;;;;7.86;64.42;101622.08;1842122;77;25353;-76
2023/05/09 05:39:03;;;;;;;19.30;12.10;;;;;;;8.13;63.89;101626.59;1842089;76;27966;-76
2023/05/09 05:41:32;;;;;;;16.87;11.15;;;;;;;8.36;63.48;101622.15;1841999;76;25941;-65
2023/05/09 05:43:58;;;;;;;24.02;12.07;;;;;;;8.58;62.80;101617.98;1841864;76;32522;-65
2023/05/09 05:46:24;;;;;;;21.52;11.85;;;;;;;8.73;62.14;101611.81;1841070;77;25692;-64
2023/05/09 05:48:50;;;;;;;20.77;12.35;;;;;;;8.91;62.04;101611.88;1840872;77;25621;-64
2023/05/09 05:51:16;;;;;;;22.30;11.48;;;;;;;9.06;61.80;101610.30;1841298;76;27529;-64
2023/05/09 05:53:43;;;;;;;18.32;10.80;;;;;;;9.21;60.90;101607.66;1829622;77;25703;-64
2023/05/09 05:56:09;;;;;;;19.90;11.40;;;;;;;9.37;60.94;101611.72;1840976;77;25702;-64
2023/05/09 05:58:35;;;;;;;19.27;10.95;;;;;;;9.52;60.33;101606.33;1841168;76;25666;-63
2023/05/09 06:01:01;;;;;;;18.52;9.75;;;;;;;9.66;59.43;101606.05;1841990;76;25426;-64
2023/05/09 06:03:27;;;;;;;17.05;10.30;;;;;;;9.82;59.19;101604.69;1841850;76;27507;-65
2023/05/09 06:05:55;;;;;;;17.98;10.15;;;;;;;9.99;58.55;101601.70;1841853;77;25429;-64
2023/05/09 06:08:22;;;;;;;17.92;9.63;;;;;;;10.16;58.02;101601.41;1841080;76;25635;-64
2023/05/09 06:10:48;;;;;;;15.10;7.85;;;;;;;10.32;57.85;101607.59;1841956;76;25616;-65
2023/05/09 06:13:14;;;;;;;15.08;8.25;;;;;;;10.49;56.92;101608.11;1841943;77;25534;-65
2023/05/09 06:15:40;;;;;;;12.10;8.13;;;;;;;10.69;57.19;101610.45;1841917;77;26859;-65
2023/05/09 06:18:07;;;;;;;11.08;7.67;;;;;;;10.91;56.68;101608.17;1841912;77;25392;-65
2023/05/09 06:20:35;;;;;;;14.58;7.53;;;;;;;11.13;55.84;101609.13;1841870;76;25361;-65
2023/05/09 06:23:01;;;;;;;13.62;6.47;;;;;;;11.38;55.54;101603.30;1841975;77;25713;-64
2023/05/09 06:25:27;;;;;;;10.55;5.78;;;;;;;11.62;54.02;101602.02;1841852;77;25384;-65
2023/05/09 06:27:53;;;;;;;13.13;6.22;;;;;;;11.85;53.77;101606.42;1842008;76;27431;-65
2023/05/09 06:30:19;;;;;;;17.55;15.72;;;;;;;12.12;53.13;101601.32;1841743;76;25542;-66
2023/05/09 06:32:45;;;;;;;80.85;75.35;;;;;;;12.35;52.33;101595.39;1830640;76;25570;-66
2023/05/09 06:35:12;;;;;;;6.92;4.22;;;;;;;12.59;51.48;101596.16;1841881;77;25551;-65
2023/05/09 06:37:38;;;;;;;8.23;4.35;;;;;;;12.89;51.45;101602.31;1841914;76;25613;-65
2023/05/09 06:40:07;;;;;;;6.40;4.10;;;;;;;13.17;49.54;101604.61;1841939;76;28157;-66
2023/05/09 06:42:33;;;;;;;8.55;4.65;;;;;;;13.41;47.32;101605.10;1842001;76;25365;-66
2023/05/09 06:44:59;;;;;;;5.55;3.92;;;;;;;13.64;46.01;101608.27;1841880;76;25514;-66
2023/05/09 06:47:25;;;;;;;5.53;3.47;;;;;;;13.89;45.14;101606.19;1841875;77;25573;-65
2023/05/09 06:49:51;;;;;;;7.15;3.77;;;;;;;14.09;43.64;101607.73;1841961;77;25422;-66
2023/05/09 06:52:19;;;;;;;5.17;2.80;;;;;;;14.24;42.67;101594.41;1841935;77;27489;-66
2023/05/09 06:54:45;;;;;;;8.15;3.30;;;;;;;14.44;41.89;101601.38;1841558;76;25636;-66
2023/05/09 06:57:12;;;;;;;4.30;2.90;;;;;;;14.67;41.44;101611.80;1841796;77;25533;-67
2023/05/09 06:59:38;;;;;;;6.55;2.85;;;;;;;14.85;41.04;101607.92;1841824;76;25519;-67
2023/05/09 07:02:04;;;;;;;4.60;3.25;;;;;;;15.11;41.37;101601.33;1841901;77;25565;-67
2023/05/09 07:04:31;;;;;;;5.03;2.70;;;;;;;15.34;40.29;101598.62;1841936;76;27549;-67
2023/05/09 07:06:59;;;;;;;4.55;2.95;;;;;;;15.56;39.95;101595.08;1841839;76;25568;-66
2023/05/09 07:09:27;;;;;;;6.95;3.17;;;;;;;15.81;40.07;101596.39;1841860;77;25344;-66
2023/05/09 07:11:54;;;;;;;4.35;2.70;;;;;;;16.13;39.56;101587.08;1841849;77;25574;-67
2023/05/09 07:14:21;;;;;;;5.47;2.80;;;;;;;16.36;38.47;101593.27;1841893;77;25411;-67
2023/05/09 07:16:47;;;;;;;4.00;2.83;;;;;;;16.52;37.72;101589.53;1841883;76;27798;-66
2023/05/09 07:19:13;;;;;;;5.42;3.02;;;;;;;16.76;37.96;101583.63;1841825;76;28347;-67
2023/05/09 07:21:39;;;;;;;5.08;2.95;;;;;;;17.11;37.54;101577.40;1841847;77;25410;-67
2023/05/09 07:24:06;;;;;;;7.17;2.55;;;;;;;17.42;37.44;101579.97;1841832;77;25553;-66
2023/05/09 07:26:35;;;;;;;2.75;2.10;;;;;;;17.63;35.91;101575.97;1841878;76;25432;-61
2023/05/09 07:29:01;;;;;;;6.00;2.30;;;;;;;17.62;33.74;101579.03;1842010;77;28096;-63
2023/05/09 07:31:27;;;;;;;4.42;2.62;;;;;;;17.48;32.94;101580.59;1841796;77;25526;-62
2023/05/09 07:33:53;;;;;;;2.95;2.40;;;;;;;17.36;32.11;101580.67;1830380;77;25644;-62
2023/05/09 07:36:19;;;;;;;3.77;2.52;;;;;;;17.42;33.18;101573.13;1841837;76;25512;-63
2023/05/09 07:38:51;;;;;;;3.62;2.22;;;;;;;17.66;33.37;101571.22;1841851;76;25411;-62
2023/05/09 07:41:17;;;;;;;6.45;2.10;;;;;;;17.95;33.51;101570.29;1841765;77;27444;-62
2023/05/09 07:43:44;;;;;;;3.15;2.00;;;;;;;18.18;31.66;101566.13;1841819;77;25386;-62
2023/05/09 07:46:10;;;;;;;6.17;2.50;;;;;;;18.29;32.19;101559.16;1841884;77;25541;-62
2023/05/09 07:48:36;;;;;;;4.72;2.17;;;;;;;18.55;30.40;101549.19;1841802;76;25482;-63
2023/05/09 07:51:03;;;;;;;3.83;2.27;;;;;;;18.61;30.27;101558.80;1841891;76;25364;-62
2023/05/09 07:53:29;;;;;;;6.03;1.90;;;;;;;18.73;30.26;101553.95;1841865;76;27342;-61
2023/05/09 07:55:57;;;;;;;4.80;2.47;;;;;;;18.88;30.13;101559.45;1841652;76;25613;-62
2023/05/09 07:58:23;;;;;;;5.03;2.60;;;;;;;19.02;28.59;101570.38;1841905;76;25621;-61
2023/05/09 08:00:49;;;;;;;3.75;2.15;;;;;;;18.93;28.98;101564.15;1841761;77;25705;-59
2023/05/09 08:03:15;;;;;;;7.30;2.37;;;;;;;18.96;28.13;101560.74;1841916;76;25620;-62
2023/05/09 08:05:41;;;;;;;2.47;2.20;;;;;;;18.89;28.47;101550.09;1841726;76;29773;-60
2023/05/09 08:08:07;;;;;;;7.00;2.08;;;;;;;19.00;26.51;101556.76;1841761;76;25597;-59
2023/05/09 08:10:34;;;;;;;5.62;2.67;;;;;;;18.98;27.24;101543.38;1841806;77;25518;-60
2023/05/09 08:13:00;;;;;;;3.98;2.40;;;;;;;18.95;27.47;101544.63;1841839;76;25533;-60
2023/05/09 08:15:26;;;;;;;2.67;2.33;;;;;;;19.08;28.21;101549.03;1841450;76;25527;-60
2023/05/09 08:17:52;;;;;;;4.20;1.82;;;;;;;19.24;27.54;101549.23;1840439;76;27063;-60
2023/05/09 08:20:18;;;;;;;2.33;2.12;;;;;;;19.25;26.45;101556.30;1840375;76;25879;-59
2023/05/09 08:22:45;;;;;;;4.92;2.70;;;;;;;19.23;26.81;101540.75;1841587;77;25619;-59
2023/05/09 08:25:12;;;;;;;5.42;2.35;;;;;;;19.44;26.29;101545.39;1840834;77;25642;-60
2023/05/09 08:27:39;;;;;;;3.60;2.05;;;;;;;19.51;27.33;101537.39;1841926;77;25648;-59
2023/05/09 08:30:08;;;;;;;7.25;2.45;;;;;;;19.90;25.78;101502.25;1841910;77;27445;-58
2023/05/09 08:32:34;;;;;;;7.60;2.40;;;;;;;20.05;25.47;101535.09;1841999;77;25379;-60
2023/05/09 08:35:01;;;;;;;3.10;2.20;;;;;;;20.04;26.27;101533.48;1841828;77;25604;-59
2023/05/09 08:37:27;;;;;;;6.92;2.85;;;;;;;20.13;24.67;101519.87;1841748;77;25499;-61
2023/05/09 08:39:54;;;;;;;3.72;2.98;;;;;;;20.23;24.79;101528.22;1830498;77;25623;-58
2023/05/09 08:42:22;;;;;;;4.05;1.87;;;;;;;20.26;25.50;101521.22;1830408;77;27528;-59
2023/05/09 08:44:48;;;;;;;4.35;2.37;;;;;;;20.53;25.61;101519.14;1841716;77;25615;-61
2023/05/09 08:47:15;;;;;;;2.17;1.98;;;;;;;20.78;25.67;101519.08;1841782;77;25549;-59
2023/05/09 08:49:44;;;;;;;5.17;2.30;;;;;;;20.98;25.29;101509.62;1810318;76;25550;-59
2023/05/09 08:52:10;;;;;;;3.23;2.67;;;;;;;21.17;25.52;101511.71;1809024;78;25478;-58
2023/05/09 08:54:38;;;;;;;5.22;2.22;;;;;;;21.23;24.09;101515.78;1808744;78;29669;-59
2023/05/09 08:57:05;;;;;;;4.85;2.33;;;;;;;21.21;24.67;101513.39;1808542;78;25359;-59
2023/05/09 08:59:36;;;;;;;2.90;1.90;;;;;;;21.26;23.60;101515.09;1808746;79;25615;-59
2023/05/09 09:02:12;;;;;;;3.83;1.98;;;;;;;21.16;23.40;101497.14;1808786;78;26247;-59
2023/05/09 09:04:38;;;;;;;3.40;2.10;;;;;;;21.22;24.16;101500.45;1808770;78;25385;-58
2023/05/09 09:07:06;;;;;;;2.45;2.10;;;;;;;21.53;24.30;101500.29;1808785;79;27934;-57
2023/05/09 09:09:35;;;;;;;5.20;2.22;;;;;;;21.53;22.16;101509.92;1808800;79;25595;-58
2023/05/09 09:12:07;;;;;;;4.33;2.02;;;;;;;;;;1808935;78;25554;-58
2023/05/09 09:14:38;;;;;;;3.52;1.90;;;;;;;21.12;22.66;101500.38;1808796;79;25526;-58
2023/05/09 09:17:08;;;;;;;4.10;2.47;;;;;;;21.29;23.68;101498.47;1808822;79;25182;-57
2023/05/09 09:19:37;;;;;;;2.72;2.10;;;;;;;21.71;23.38;101497.96;1808788;78;27504;-56
2023/05/09 09:22:05;;;;;;;4.20;2.33;;;;;;;22.01;23.30;101506.56;1797498;79;25415;-58
2023/05/09 09:24:32;;;;;;;4.67;2.20;;;;;;;22.00;22.15;101487.86;1808918;79;25679;-57
2023/05/09 09:27:05;;;;;;;2.40;2.15;;;;;;;22.04;22.74;101473.38;1808656;79;27623;-57
2023/05/09 09:29:33;;;;;;;5.72;2.20;;;;;;;22.17;22.84;101488.64;1808796;79;25590;-56
2023/05/09 09:32:04;;;;;;;3.10;2.40;;;;;;;22.42;23.23;101486.44;1808944;79;27462;-58
2023/05/09 09:34:31;;;;;;;2.58;2.20;;;;;;;22.64;22.40;101479.41;1808643;79;25894;-58
2023/05/09 09:36:59;;;;;;;5.22;2.50;;;;;;;22.94;23.23;101474.69;1808675;79;25578;-56
2023/05/09 09:39:25;;;;;;;3.95;2.15;;;;;;;23.26;22.40;101476.69;1808648;79;25553;-56
2023/05/09 09:41:51;;;;;;;4.05;2.22;;;;;;;23.37;22.28;101481.01;1808724;79;25583;-57
2023/05/09 09:44:20;;;;;;;3.10;2.25;;;;;;;23.41;22.54;101477.75;1808753;79;27413;-57
2023/05/09 09:46:53;;;;;;;4.25;2.00;;;;;;;23.77;22.37;101474.18;1808606;79;25362;-57
2023/05/09 09:49:22;;;;;;;2.50;1.92;;;;;;;23.66;21.10;101478.14;1808744;79;25441;-56
2023/05/09 09:51:55;;;;;;;2.60;1.75;;;;;;;23.23;20.75;101464.21;1808828;79;25611;-56
2023/05/09 09:54:27;;;;;;;3.47;2.15;;;;;;;23.07;21.24;101468.44;1808624;78;25429;-59
2023/05/09 09:56:55;;;;;;;2.47;1.77;;;;;;;22.95;20.84;101479.03;1808612;79;28218;-61
2023/05/09 09:59:24;;;;;;;3.60;2.00;;;;;;;22.55;20.82;101469.20;1808860;79;27372;-63
2023/05/09 10:02:03;;;;;;;;;;;;;;;22.42;20.48;101467.73;1811536;79;25361;-61
2023/05/09 10:04:35;;;;;;;3.83;2.22;;;;;;;22.38;20.47;101464.31;1808948;79;34667;-62
2023/05/09 10:07:05;;;;;;;2.60;2.20;;;;;;;22.35;20.25;101471.92;1808884;79;25359;-59
2023/05/09 10:09:33;;;;;;;4.08;2.50;;;;;;;22.50;21.43;101459.25;1808853;79;28239;-57
2023/05/09 10:12:07;;;;;;;5.03;2.20;;;;;;;22.65;20.91;101465.86;1808777;79;25764;-62
2023/05/09 10:14:37;;;;;;;2.33;1.80;;;;;;;22.76;21.02;101459.16;1808895;79;25421;-68
2023/05/09 10:17:05;;;;;;;3.75;2.10;;;;;;;22.73;20.99;101454.37;1808823;78;25623;-68
2023/05/09 10:19:32;;;;;;;2.62;2.27;;;;;;;22.90;20.95;101426.36;1808906;78;25448;-65
2023/05/09 10:22:05;;;;;;;3.17;2.35;;;;;;;23.06;20.94;101451.09;1808892;79;27438;-64
2023/05/09 10:24:52;;;;;;;4.03;2.35;;;;;;;23.33;21.19;101439.32;1808830;79;25413;-65
2023/05/09 10:27:22;;;;;;;4.58;2.10;;;;;;;23.44;19.89;101445.23;1808630;78;25594;-65
2023/05/09 10:29:54;;;;;;;;;;;;;;;23.58;20.89;101442.50;1811537;78;25530;-65
2023/05/09 10:32:37;;;;;;;2.20;1.95;;;;;;;23.91;20.86;101430.02;1808231;78;25538;-66
2023/05/09 10:35:07;;;;;;;4.85;2.45;;;;;;;24.17;20.33;101442.40;1767440;81;26849;-72
2023/05/09 10:37:36;;;;;;;6.42;2.17;;;;;;;24.34;20.58;101435.52;1767375;81;25434;-60
2023/05/09 10:40:05;;;;;;;5.15;2.35;;;;;;;24.52;20.34;101428.83;1767572;81;25502;-60
2023/05/09 10:42:31;;;;;;;5.92;2.00;;;;;;;24.51;19.72;101442.44;1767549;81;34781;-60
2023/05/09 10:44:57;;;;;;;6.75;2.12;;;;;;;24.21;19.02;101432.77;1767446;81;25639;-54
2023/05/09 10:47:27;;;;;;;3.70;2.50;;;;;;;23.76;19.03;101431.73;1767409;81;27407;-55
2023/05/09 10:49:54;;;;;;;3.08;2.10;;;;;;;23.68;19.83;101436.34;1767353;81;25480;-55
2023/05/09 10:52:21;;;;;;;3.47;1.90;;;;;;;23.78;19.38;101441.83;1767450;81;25596;-56
2023/05/09 10:55:03;;;;;;;4.60;2.15;;;;;;;23.69;20.01;101425.52;1767436;81;25685;-56
2023/05/09 10:57:30;;;;;;;9.00;2.40;;;;;;;23.81;19.67;101412.08;1766027;80;25670;-59
2023/05/09 10:59:59;;;;;;;6.67;2.47;;;;;;;23.92;19.31;101434.35;1765962;81;27550;-58
2023/05/09 11:02:28;;;;;;;3.35;2.45;;;;;;;23.77;19.85;101405.69;1766557;81;26000;-57
2023/05/09 11:05:19;;;;;;;2.55;2.10;;;;;;;23.92;19.87;101413.63;1766647;81;30273;-56
2023/05/09 11:07:46;;;;;;;4.00;1.72;;;;;;;23.94;19.78;101416.25;1767458;81;25699;-56
2023/05/09 11:10:18;;;;;;;4.80;2.25;;;;;;;24.14;20.06;101407.22;1767368;81;25562;-57
2023/05/09 11:12:58;;;;;;;5.83;2.15;;;;;;;24.49;20.29;101406.07;1797816;79;27541;-56
2023/05/09 11:15:26;;;;;;;12.30;2.30;;;;;;;24.84;19.97;101393.02;1808718;79;25404;-55
2023/05/09 11:18:09;;;;;;;6.92;2.20;;;;;;;25.15;19.57;101401.44;1808924;78;25401;-56
2023/05/09 11:20:45;;;;;;;3.33;2.02;;;;;;;25.19;19.60;101401.45;1808776;79;25616;-56
2023/05/09 11:23:23;;;;;;;8.33;2.40;;;;;;;25.04;19.25;101401.31;1797873;79;25400;-58
2023/05/09 11:25:51;;;;;;;2.12;1.85;;;;;;;25.23;19.35;101391.20;1808506;78;27499;-56
2023/05/09 11:28:38;;;;;;;2.10;1.90;;;;;;;25.63;19.93;101386.18;1808804;79;25592;-56